West Palm Beach, FL (33406)

8:40 AM EDT on May 22, 2015 (GMT -0400)
Lake Clarke Shores - Caribbean Rd. East | | Change Station
CLOSE
Current Station
Personal Weather Station
Location: Lake Clarke Shores, FL
Elevation: 16 ft
Nearby Weather Stations

Elev 16 ft 26.63 °N, 80.07 °W | Updated 5 seconds ago

Partly Cloudy
Partly Cloudy
91.9 °F
Feels Like 106 °F
N
4.0
Wind Variable Wind from WNW
Gusts 4.0 mph

Today
High -- | Low -- °F
--% Chance of Precip.
Yesterday
High -- | Low -- °F
Precip. -- in
6:29 AM 8:04 PM
Waxing Crescent, 21% visible
Pressure 30.06 in
Visibility 7.0 miles
Clouds Few 7500 ft
Few 25000 ft
Heat Index 106 °F
Dew Point 77 °F
Humidity 62%
Rainfall 0.00 in
Snow Depth Not available.
UV 1 out of 12
Pollen 3.90 out of 12
Air Quality Not available.
Flu Activity Sporadic
METAR KPBI 221153Z 00000KT 7SM FEW075 FEW250 26/22 A3007 RMK AO2 SLP180 70006 T02560222 10256 20233 53015

More Conditions Fewer Conditions

Pressure 30.06 in
Visibility 7.0 miles
Clouds Few 7500 ft
Few 25000 ft
Heat Index 106 °F
Dew Point 77 °F
Humidity 62%
Rainfall 0.00 in
Snow Depth Not available.
UV 1 out of 12
Pollen 3.90 out of 12
Air Quality Not available.
Flu Activity Sporadic
METAR KPBI 221153Z 00000KT 7SM FEW075 FEW250 26/22 A3007 RMK AO2 SLP180 70006 T02560222 10256 20233 53015

More Conditions Fewer Conditions

10-Day Weather Forecast

Almanac

Astronomy

May. 22, 2015 Rise Set
Actual Time
Civil Twilight
Nautical Twilight
Astronomical Twilight
Moon
Length of Visible Light
Length of Day
Tomorrow will be .
, % of the Moon is Illuminated

Today's Extremes

State Highs State Lows

Community

WunderPhotos

Upload Photos

1,823,209 photos uploaded!

WunderBlogs® & News

Nearby

Air Quality

  Air Quality AQ Index Pollutant
Not available.

Snow Depth

Station Depth Elevation

Earthquake Activity

City Distance Mag. Time & Date
Minimum magnitude displayed is 2.5.

Coastal Water Temperatures

Place Temperature

Stations

Nearby Weather Stations

Station Location Temp. Windchill Dew Point Humidity Wind Precip. Elev Updated Type